Aurora, CO (80016)

7:50 AM MST on December 07, 2016 (GMT -0700)
Antelope West | | Change Station

Elev 5846 ft 39.59 °N, 104.76 °W | Updated 5 seconds ago

Light Snow
Light Snow Mist
12.6 °F
Feels Like 13 °F
N
0.0
Wind Variable Wind from West
Gusts 0.0 mph

Today
High -- | Low -- °F
--% Chance of Precip.
Yesterday
High -- | Low -- °F
Precip. -- in
Pressure 30.06 in
Visibility 0.8 miles
Clouds Mostly Cloudy 800 ft
Mostly Cloudy 1300 ft
Overcast 2500 ft
Windchill 13 °F
Dew Point 8 °F
Humidity 81%
Rainfall 0.00 in
Snow Depth Not available.
7:06 AM 4:34 PM
First Quarter, 53% visible
SPECI KAPA 071446Z 34015KT 3/4SM -SN BR BKN008 BKN013 OVC025 M12/M14 A3006 RMK AO2 SFC VIS 1 P0000 T11171139
Pressure 30.06 in
Visibility 0.8 miles
Clouds Mostly Cloudy 800 ft
Mostly Cloudy 1300 ft
Overcast 2500 ft
Windchill 13 °F
Dew Point 8 °F
Humidity 81%
Rainfall 0.00 in
Snow Depth Not available.
7:06 AM 4:34 PM
First Quarter, 53% visible
SPECI KAPA 071446Z 34015KT 3/4SM -SN BR BKN008 BKN013 OVC025 M12/M14 A3006 RMK AO2 SFC VIS 1 P0000 T11171139

10-Day Weather Forecast

Almanac

Astronomy

Dec. 07, 2016 Rise Set
Actual Time
Civil Twilight
Nautical Twilight
Astronomical Twilight
Moon
Length of Visible Light
Length of Day
Tomorrow will be .
, % of the Moon is Illuminated

Today's Extremes

State Highs State Lows

Community

WunderPhotos

Upload Photos

1,956,116 photos uploaded!

WunderBlog® & News

Nearby

Air Quality

  Air Quality AQ Index Pollutant
Not available.

Snow Depth

Station Depth Elevation

Earthquake Activity

City Distance Mag. Time & Date
Minimum magnitude displayed is 2.5.

Coastal Water Temperatures

Place Temperature

Stations

Nearby Weather Stations

Station Location Temp. Windchill Dew Point Humidity Wind Precip. Elev Updated Type
                   

Watches & Warnings

Winter Weather Advisory
Issued: 4:12 AM MST Dec. 7, 2016 – National Weather Service

... Winter Weather Advisory remains in effect until noon MST
today...

* timing... snow will be decreasing through this morning

* snow accumulations... an additional one half to one inch is
expected for a storm total of 2 to 5 inches with higher amounts
west of I-25.

* Impacts... travel will be hazardous due to snowpacked roads and
reduced visibility.

Precautionary/preparedness actions...

A Winter Weather Advisory for snow means that periods of snow
will cause primarily travel difficulties. Be prepared for snow
covered roads and limited visibilities... and use caution while
driving.